Anna, Texas
Current Conditions -  °F | °C
As of 3:53 AM on Friday 28 Nov 2014 (Local Time) from KTKI Reporting Station
Clear Clear  
Wind Chill: 34°   Ceiling: Unl
Heat Index: 34°   Visibility: 10mi
Dew Point: 27°   Wind: 0mph
Humidity: 75%   Direction: NA
Pressure: 30.3"   Gusts: NA
Location:  33.35°N, 96.55°W
Report Text: KTKI 280953Z AUTO 00000KT 10SM CLR 01/M03 A3030 RMK AO2 SLP272 T00111028
Loading
Personal Weather Stations






























Interactive Weather Map New forecast layout! Learn more

10-Day Weather Forecast

Advertisements
Track Severe Weather on mobile